sensor_id;sensor_type;location;lat;lon;timestamp;temperature;humidity
85956;DHT22;76522;51.420;5.386;2024-02-28T00:00:49;4.30;77.30
85956;DHT22;76522;51.420;5.386;2024-02-28T00:03:17;4.30;77.50
85956;DHT22;76522;51.420;5.386;2024-02-28T00:05:42;4.20;77.20
85956;DHT22;76522;51.420;5.386;2024-02-28T00:08:08;4.20;77.20
85956;DHT22;76522;51.420;5.386;2024-02-28T00:10:34;4.30;77.20
85956;DHT22;76522;51.420;5.386;2024-02-28T00:13:00;4.20;77.20
85956;DHT22;76522;51.420;5.386;2024-02-28T00:15:25;4.10;77.50
85956;DHT22;76522;51.420;5.386;2024-02-28T00:17:54;4.10;77.50
85956;DHT22;76522;51.420;5.386;2024-02-28T00:20:20;4.10;77.60
85956;DHT22;76522;51.420;5.386;2024-02-28T00:22:46;4.20;77.60
85956;DHT22;76522;51.420;5.386;2024-02-28T00:25:11;4.30;77.70
85956;DHT22;76522;51.420;5.386;2024-02-28T00:27:39;4.20;77.50
85956;DHT22;76522;51.420;5.386;2024-02-28T00:30:05;4.10;77.80
85956;DHT22;76522;51.420;5.386;2024-02-28T00:32:32;4.10;77.60
85956;DHT22;76522;51.420;5.386;2024-02-28T00:34:58;4.10;77.60
85956;DHT22;76522;51.420;5.386;2024-02-28T00:37:23;4.10;77.80
85956;DHT22;76522;51.420;5.386;2024-02-28T00:39:49;4.10;77.80
85956;DHT22;76522;51.420;5.386;2024-02-28T00:42:15;4.10;78.20
85956;DHT22;76522;51.420;5.386;2024-02-28T00:44:41;4.10;78.00
85956;DHT22;76522;51.420;5.386;2024-02-28T00:47:09;4.20;78.30
85956;DHT22;76522;51.420;5.386;2024-02-28T00:49:35;4.30;78.00
85956;DHT22;76522;51.420;5.386;2024-02-28T00:52:00;4.30;78.00
85956;DHT22;76522;51.420;5.386;2024-02-28T00:54:26;4.40;77.90
85956;DHT22;76522;51.420;5.386;2024-02-28T00:56:52;4.40;78.10
85956;DHT22;76522;51.420;5.386;2024-02-28T00:59:18;4.40;78.10
85956;DHT22;76522;51.420;5.386;2024-02-28T01:01:44;4.40;77.40
85956;DHT22;76522;51.420;5.386;2024-02-28T01:04:09;4.30;77.20
85956;DHT22;76522;51.420;5.386;2024-02-28T01:06:35;4.30;77.00
85956;DHT22;76522;51.420;5.386;2024-02-28T01:09:01;4.20;77.30
85956;DHT22;76522;51.420;5.386;2024-02-28T01:11:26;4.10;77.30
85956;DHT22;76522;51.420;5.386;2024-02-28T01:13:52;4.00;77.30
85956;DHT22;76522;51.420;5.386;2024-02-28T01:16:18;4.00;77.20
85956;DHT22;76522;51.420;5.386;2024-02-28T01:18:44;3.90;77.30
85956;DHT22;76522;51.420;5.386;2024-02-28T01:21:09;3.90;77.50
85956;DHT22;76522;51.420;5.386;2024-02-28T01:23:35;3.90;77.50
85956;DHT22;76522;51.420;5.386;2024-02-28T01:26:01;3.90;77.60
85956;DHT22;76522;51.420;5.386;2024-02-28T01:28:29;3.90;77.60
85956;DHT22;76522;51.420;5.386;2024-02-28T01:30:55;3.90;77.70
85956;DHT22;76522;51.420;5.386;2024-02-28T01:33:20;3.90;77.80
85956;DHT22;76522;51.420;5.386;2024-02-28T01:35:46;4.00;77.50
85956;DHT22;76522;51.420;5.386;2024-02-28T01:38:12;4.00;77.40
85956;DHT22;76522;51.420;5.386;2024-02-28T01:40:37;4.00;77.20
85956;DHT22;76522;51.420;5.386;2024-02-28T01:43:11;3.90;77.30
85956;DHT22;76522;51.420;5.386;2024-02-28T01:45:37;3.90;77.50
85956;DHT22;76522;51.420;5.386;2024-02-28T01:48:03;4.00;77.40
85956;DHT22;76522;51.420;5.386;2024-02-28T01:50:33;3.90;77.00
85956;DHT22;76522;51.420;5.386;2024-02-28T01:53:00;3.90;77.00
85956;DHT22;76522;51.420;5.386;2024-02-28T01:55:26;3.80;77.00
85956;DHT22;76522;51.420;5.386;2024-02-28T01:57:52;3.80;77.00
85956;DHT22;76522;51.420;5.386;2024-02-28T02:00:18;3.70;77.10
85956;DHT22;76522;51.420;5.386;2024-02-28T02:02:44;3.60;77.20
85956;DHT22;76522;51.420;5.386;2024-02-28T02:05:10;3.50;77.30
85956;DHT22;76522;51.420;5.386;2024-02-28T02:07:36;3.50;77.60
85956;DHT22;76522;51.420;5.386;2024-02-28T02:10:02;3.50;77.50
85956;DHT22;76522;51.420;5.386;2024-02-28T02:12:28;3.60;77.20
85956;DHT22;76522;51.420;5.386;2024-02-28T02:14:54;3.50;77.20
85956;DHT22;76522;51.420;5.386;2024-02-28T02:17:19;3.50;77.20
85956;DHT22;76522;51.420;5.386;2024-02-28T02:19:45;3.50;77.20
85956;DHT22;76522;51.420;5.386;2024-02-28T02:22:13;3.50;77.00
85956;DHT22;76522;51.420;5.386;2024-02-28T02:24:40;3.40;77.30
85956;DHT22;76522;51.420;5.386;2024-02-28T02:27:06;3.40;77.20
85956;DHT22;76522;51.420;5.386;2024-02-28T02:29:31;3.30;77.30
85956;DHT22;76522;51.420;5.386;2024-02-28T02:31:57;3.30;77.00
85956;DHT22;76522;51.420;5.386;2024-02-28T02:34:23;3.30;77.00
85956;DHT22;76522;51.420;5.386;2024-02-28T02:36:49;3.30;77.20
85956;DHT22;76522;51.420;5.386;2024-02-28T02:39:14;3.30;77.20
85956;DHT22;76522;51.420;5.386;2024-02-28T02:41:40;3.30;77.40
85956;DHT22;76522;51.420;5.386;2024-02-28T02:44:07;3.30;77.20
85956;DHT22;76522;51.420;5.386;2024-02-28T02:46:33;3.30;77.30
85956;DHT22;76522;51.420;5.386;2024-02-28T02:48:58;3.30;77.20
85956;DHT22;76522;51.420;5.386;2024-02-28T02:51:24;3.30;77.10
85956;DHT22;76522;51.420;5.386;2024-02-28T02:53:51;3.30;76.90
85956;DHT22;76522;51.420;5.386;2024-02-28T02:56:17;3.30;76.70
85956;DHT22;76522;51.420;5.386;2024-02-28T02:58:43;3.20;76.80
85956;DHT22;76522;51.420;5.386;2024-02-28T03:01:08;3.10;76.90
85956;DHT22;76522;51.420;5.386;2024-02-28T03:03:34;3.10;76.90
85956;DHT22;76522;51.420;5.386;2024-02-28T03:06:00;3.10;77.10
85956;DHT22;76522;51.420;5.386;2024-02-28T03:08:25;3.10;77.10
85956;DHT22;76522;51.420;5.386;2024-02-28T03:10:51;3.20;77.10
85956;DHT22;76522;51.420;5.386;2024-02-28T03:13:17;3.20;76.80
85956;DHT22;76522;51.420;5.386;2024-02-28T03:15:44;3.10;76.70
85956;DHT22;76522;51.420;5.386;2024-02-28T03:18:09;3.10;76.90
85956;DHT22;76522;51.420;5.386;2024-02-28T03:20:35;3.10;76.80
85956;DHT22;76522;51.420;5.386;2024-02-28T03:23:04;3.10;77.00
85956;DHT22;76522;51.420;5.386;2024-02-28T03:25:32;3.10;77.00
85956;DHT22;76522;51.420;5.386;2024-02-28T03:27:58;3.10;76.90
85956;DHT22;76522;51.420;5.386;2024-02-28T03:30:25;3.00;76.90
85956;DHT22;76522;51.420;5.386;2024-02-28T03:32:50;3.10;76.90
85956;DHT22;76522;51.420;5.386;2024-02-28T03:35:16;3.10;76.80
85956;DHT22;76522;51.420;5.386;2024-02-28T03:37:42;3.00;76.90
85956;DHT22;76522;51.420;5.386;2024-02-28T03:40:08;3.00;77.10
85956;DHT22;76522;51.420;5.386;2024-02-28T03:42:33;3.10;76.90
85956;DHT22;76522;51.420;5.386;2024-02-28T03:44:59;3.10;76.90
85956;DHT22;76522;51.420;5.386;2024-02-28T03:47:25;3.10;76.90
85956;DHT22;76522;51.420;5.386;2024-02-28T03:49:51;3.00;77.20
85956;DHT22;76522;51.420;5.386;2024-02-28T03:52:16;3.00;77.00
85956;DHT22;76522;51.420;5.386;2024-02-28T03:54:43;3.00;77.00
85956;DHT22;76522;51.420;5.386;2024-02-28T03:57:09;3.00;77.10
85956;DHT22;76522;51.420;5.386;2024-02-28T03:59:34;3.00;77.00
85956;DHT22;76522;51.420;5.386;2024-02-28T04:02:00;3.00;77.00
85956;DHT22;76522;51.420;5.386;2024-02-28T04:04:26;3.00;76.90
85956;DHT22;76522;51.420;5.386;2024-02-28T04:06:52;3.00;77.10
85956;DHT22;76522;51.420;5.386;2024-02-28T04:09:17;3.00;77.00
85956;DHT22;76522;51.420;5.386;2024-02-28T04:11:43;3.00;77.00
85956;DHT22;76522;51.420;5.386;2024-02-28T04:14:09;3.00;77.10
85956;DHT22;76522;51.420;5.386;2024-02-28T04:16:40;3.00;77.20
85956;DHT22;76522;51.420;5.386;2024-02-28T04:19:05;3.00;77.20
85956;DHT22;76522;51.420;5.386;2024-02-28T04:21:31;3.00;77.20
85956;DHT22;76522;51.420;5.386;2024-02-28T04:23:57;3.00;77.10
85956;DHT22;76522;51.420;5.386;2024-02-28T04:26:24;3.10;77.10
85956;DHT22;76522;51.420;5.386;2024-02-28T04:28:49;3.10;77.10
85956;DHT22;76522;51.420;5.386;2024-02-28T04:31:15;3.10;77.10
85956;DHT22;76522;51.420;5.386;2024-02-28T04:33:40;3.10;77.10
85956;DHT22;76522;51.420;5.386;2024-02-28T04:36:06;3.10;77.20
85956;DHT22;76522;51.420;5.386;2024-02-28T04:38:32;3.10;77.20
85956;DHT22;76522;51.420;5.386;2024-02-28T04:40:58;3.10;77.10
85956;DHT22;76522;51.420;5.386;2024-02-28T04:43:23;3.10;77.10
85956;DHT22;76522;51.420;5.386;2024-02-28T04:45:49;3.10;77.10
85956;DHT22;76522;51.420;5.386;2024-02-28T04:48:15;3.10;77.00
85956;DHT22;76522;51.420;5.386;2024-02-28T04:50:40;3.10;77.00
85956;DHT22;76522;51.420;5.386;2024-02-28T04:53:06;3.10;77.10
85956;DHT22;76522;51.420;5.386;2024-02-28T04:55:32;3.10;77.10
85956;DHT22;76522;51.420;5.386;2024-02-28T04:57:57;3.10;77.20
85956;DHT22;76522;51.420;5.386;2024-02-28T05:00:23;3.10;77.30
85956;DHT22;76522;51.420;5.386;2024-02-28T05:02:49;3.10;77.20
85956;DHT22;76522;51.420;5.386;2024-02-28T05:05:14;3.10;77.10
85956;DHT22;76522;51.420;5.386;2024-02-28T05:07:40;3.10;77.00
85956;DHT22;76522;51.420;5.386;2024-02-28T05:10:06;3.10;77.20
85956;DHT22;76522;51.420;5.386;2024-02-28T05:12:32;3.10;77.20
85956;DHT22;76522;51.420;5.386;2024-02-28T05:14:58;3.10;77.10
85956;DHT22;76522;51.420;5.386;2024-02-28T05:17:23;3.10;77.00
85956;DHT22;76522;51.420;5.386;2024-02-28T05:19:49;3.10;77.10
85956;DHT22;76522;51.420;5.386;2024-02-28T05:22:15;3.10;77.20
85956;DHT22;76522;51.420;5.386;2024-02-28T05:24:40;3.00;77.20
85956;DHT22;76522;51.420;5.386;2024-02-28T05:27:09;3.00;77.20
85956;DHT22;76522;51.420;5.386;2024-02-28T05:29:35;3.00;77.20
85956;DHT22;76522;51.420;5.386;2024-02-28T05:32:00;3.00;77.00
85956;DHT22;76522;51.420;5.386;2024-02-28T05:34:26;3.00;77.20
85956;DHT22;76522;51.420;5.386;2024-02-28T05:36:52;2.90;77.20
85956;DHT22;76522;51.420;5.386;2024-02-28T05:39:17;2.90;77.20
85956;DHT22;76522;51.420;5.386;2024-02-28T05:41:43;3.00;77.10
85956;DHT22;76522;51.420;5.386;2024-02-28T05:44:09;2.90;77.10
85956;DHT22;76522;51.420;5.386;2024-02-28T05:46:34;2.90;77.20
85956;DHT22;76522;51.420;5.386;2024-02-28T05:49:02;2.90;77.20
85956;DHT22;76522;51.420;5.386;2024-02-28T05:51:28;2.90;77.20
85956;DHT22;76522;51.420;5.386;2024-02-28T05:53:54;2.90;77.20
85956;DHT22;76522;51.420;5.386;2024-02-28T05:56:19;2.90;77.30
85956;DHT22;76522;51.420;5.386;2024-02-28T05:58:47;2.90;77.20
85956;DHT22;76522;51.420;5.386;2024-02-28T06:01:17;2.90;77.20
85956;DHT22;76522;51.420;5.386;2024-02-28T06:03:45;2.90;77.10
85956;DHT22;76522;51.420;5.386;2024-02-28T06:06:12;2.90;77.10
85956;DHT22;76522;51.420;5.386;2024-02-28T06:08:39;2.90;77.10
85956;DHT22;76522;51.420;5.386;2024-02-28T06:11:05;2.80;77.30
85956;DHT22;76522;51.420;5.386;2024-02-28T06:13:31;2.90;77.20
85956;DHT22;76522;51.420;5.386;2024-02-28T06:15:57;2.90;77.10
85956;DHT22;76522;51.420;5.386;2024-02-28T06:18:25;2.90;77.10
85956;DHT22;76522;51.420;5.386;2024-02-28T06:20:55;2.90;77.20
85956;DHT22;76522;51.420;5.386;2024-02-28T06:23:24;2.90;77.10
85956;DHT22;76522;51.420;5.386;2024-02-28T06:25:50;3.00;77.00
85956;DHT22;76522;51.420;5.386;2024-02-28T06:28:16;3.00;76.90
85956;DHT22;76522;51.420;5.386;2024-02-28T06:30:44;3.00;77.00
85956;DHT22;76522;51.420;5.386;2024-02-28T06:33:13;3.10;76.80
85956;DHT22;76522;51.420;5.386;2024-02-28T06:35:40;3.10;77.00
85956;DHT22;76522;51.420;5.386;2024-02-28T06:38:06;3.10;76.90
85956;DHT22;76522;51.420;5.386;2024-02-28T06:40:32;3.10;76.70
85956;DHT22;76522;51.420;5.386;2024-02-28T06:42:58;3.10;76.90
85956;DHT22;76522;51.420;5.386;2024-02-28T06:45:24;3.30;76.90
85956;DHT22;76522;51.420;5.386;2024-02-28T06:47:49;3.30;76.90
85956;DHT22;76522;51.420;5.386;2024-02-28T06:50:16;3.40;76.80
85956;DHT22;76522;51.420;5.386;2024-02-28T06:52:42;3.40;76.70
85956;DHT22;76522;51.420;5.386;2024-02-28T06:55:08;3.40;76.80
85956;DHT22;76522;51.420;5.386;2024-02-28T06:57:37;3.40;76.80
85956;DHT22;76522;51.420;5.386;2024-02-28T07:00:07;3.40;77.00
85956;DHT22;76522;51.420;5.386;2024-02-28T07:02:44;3.40;76.90
85956;DHT22;76522;51.420;5.386;2024-02-28T07:05:10;3.40;77.00
85956;DHT22;76522;51.420;5.386;2024-02-28T07:07:36;3.50;77.20
85956;DHT22;76522;51.420;5.386;2024-02-28T07:10:05;3.50;76.90
85956;DHT22;76522;51.420;5.386;2024-02-28T07:12:31;3.50;76.70
85956;DHT22;76522;51.420;5.386;2024-02-28T07:14:57;3.60;76.70
85956;DHT22;76522;51.420;5.386;2024-02-28T07:17:22;3.70;76.50
85956;DHT22;76522;51.420;5.386;2024-02-28T07:19:48;3.70;76.60
85956;DHT22;76522;51.420;5.386;2024-02-28T07:22:14;3.70;76.60
85956;DHT22;76522;51.420;5.386;2024-02-28T07:24:39;3.70;76.60
85956;DHT22;76522;51.420;5.386;2024-02-28T07:27:05;3.80;76.20
85956;DHT22;76522;51.420;5.386;2024-02-28T07:29:31;3.90;76.20
85956;DHT22;76522;51.420;5.386;2024-02-28T07:31:57;3.90;76.20
85956;DHT22;76522;51.420;5.386;2024-02-28T07:34:22;3.90;76.00
85956;DHT22;76522;51.420;5.386;2024-02-28T07:36:48;3.90;76.20
85956;DHT22;76522;51.420;5.386;2024-02-28T07:39:14;3.90;76.20
85956;DHT22;76522;51.420;5.386;2024-02-28T07:41:40;4.00;76.20
85956;DHT22;76522;51.420;5.386;2024-02-28T07:44:07;4.00;76.10
85956;DHT22;76522;51.420;5.386;2024-02-28T07:46:33;4.00;76.00
85956;DHT22;76522;51.420;5.386;2024-02-28T07:49:00;4.10;76.10
85956;DHT22;76522;51.420;5.386;2024-02-28T07:51:27;4.10;75.90
85956;DHT22;76522;51.420;5.386;2024-02-28T07:53:52;4.20;75.90
85956;DHT22;76522;51.420;5.386;2024-02-28T07:56:21;4.10;76.00
85956;DHT22;76522;51.420;5.386;2024-02-28T07:58:47;4.10;76.20
85956;DHT22;76522;51.420;5.386;2024-02-28T08:01:13;4.20;75.90
85956;DHT22;76522;51.420;5.386;2024-02-28T08:03:38;4.20;76.00
85956;DHT22;76522;51.420;5.386;2024-02-28T08:06:04;4.30;75.80
85956;DHT22;76522;51.420;5.386;2024-02-28T08:08:30;4.40;76.10
85956;DHT22;76522;51.420;5.386;2024-02-28T08:10:56;4.50;75.90
85956;DHT22;76522;51.420;5.386;2024-02-28T08:13:21;4.60;75.40
85956;DHT22;76522;51.420;5.386;2024-02-28T08:15:47;4.70;75.50
85956;DHT22;76522;51.420;5.386;2024-02-28T08:18:13;4.70;75.30
85956;DHT22;76522;51.420;5.386;2024-02-28T08:20:39;4.70;75.30
85956;DHT22;76522;51.420;5.386;2024-02-28T08:23:05;4.70;75.90
85956;DHT22;76522;51.420;5.386;2024-02-28T08:25:31;4.80;75.50
85956;DHT22;76522;51.420;5.386;2024-02-28T08:27:57;4.90;75.20
85956;DHT22;76522;51.420;5.386;2024-02-28T08:30:23;5.00;76.30
85956;DHT22;76522;51.420;5.386;2024-02-28T08:32:48;5.20;74.70
85956;DHT22;76522;51.420;5.386;2024-02-28T08:35:14;5.10;75.00
85956;DHT22;76522;51.420;5.386;2024-02-28T08:37:40;5.00;75.20
85956;DHT22;76522;51.420;5.386;2024-02-28T08:40:06;5.00;75.50
85956;DHT22;76522;51.420;5.386;2024-02-28T08:42:32;4.90;75.70
85956;DHT22;76522;51.420;5.386;2024-02-28T08:44:59;5.00;76.00
85956;DHT22;76522;51.420;5.386;2024-02-28T08:47:26;5.00;75.90
85956;DHT22;76522;51.420;5.386;2024-02-28T08:49:52;5.00;76.20
85956;DHT22;76522;51.420;5.386;2024-02-28T08:52:19;5.10;76.10
85956;DHT22;76522;51.420;5.386;2024-02-28T08:54:45;5.10;75.90
85956;DHT22;76522;51.420;5.386;2024-02-28T08:57:11;5.10;76.00
85956;DHT22;76522;51.420;5.386;2024-02-28T08:59:37;5.20;75.90
85956;DHT22;76522;51.420;5.386;2024-02-28T09:02:03;5.30;76.20
85956;DHT22;76522;51.420;5.386;2024-02-28T09:04:29;5.30;75.90
85956;DHT22;76522;51.420;5.386;2024-02-28T09:06:55;5.50;75.40
85956;DHT22;76522;51.420;5.386;2024-02-28T09:09:20;5.40;75.60
85956;DHT22;76522;51.420;5.386;2024-02-28T09:11:46;5.50;75.80
85956;DHT22;76522;51.420;5.386;2024-02-28T09:14:12;5.50;75.60
85956;DHT22;76522;51.420;5.386;2024-02-28T09:16:37;5.50;75.70
85956;DHT22;76522;51.420;5.386;2024-02-28T09:19:04;5.60;75.90
85956;DHT22;76522;51.420;5.386;2024-02-28T09:21:30;5.70;75.80
85956;DHT22;76522;51.420;5.386;2024-02-28T09:23:56;5.80;75.80
85956;DHT22;76522;51.420;5.386;2024-02-28T09:26:21;5.90;75.50
85956;DHT22;76522;51.420;5.386;2024-02-28T09:28:47;6.10;75.30
85956;DHT22;76522;51.420;5.386;2024-02-28T09:31:13;6.20;75.60
85956;DHT22;76522;51.420;5.386;2024-02-28T09:33:41;6.50;74.80
85956;DHT22;76522;51.420;5.386;2024-02-28T09:36:07;6.90;74.50
85956;DHT22;76522;51.420;5.386;2024-02-28T09:38:32;7.20;73.40
85956;DHT22;76522;51.420;5.386;2024-02-28T09:41:01;7.40;72.80
85956;DHT22;76522;51.420;5.386;2024-02-28T09:43:30;7.40;73.10
85956;DHT22;76522;51.420;5.386;2024-02-28T09:46:03;7.40;73.20
85956;DHT22;76522;51.420;5.386;2024-02-28T09:48:29;7.50;73.30
85956;DHT22;76522;51.420;5.386;2024-02-28T09:51:05;7.40;73.10
85956;DHT22;76522;51.420;5.386;2024-02-28T09:53:32;7.20;73.60
85956;DHT22;76522;51.420;5.386;2024-02-28T09:55:58;7.20;74.40
85956;DHT22;76522;51.420;5.386;2024-02-28T09:58:25;7.10;74.50
85956;DHT22;76522;51.420;5.386;2024-02-28T10:00:52;7.00;74.90
85956;DHT22;76522;51.420;5.386;2024-02-28T10:03:22;7.00;75.40
85956;DHT22;76522;51.420;5.386;2024-02-28T10:05:49;6.90;75.70
85956;DHT22;76522;51.420;5.386;2024-02-28T10:08:15;6.90;75.90
85956;DHT22;76522;51.420;5.386;2024-02-28T10:10:48;7.00;76.00
85956;DHT22;76522;51.420;5.386;2024-02-28T10:13:16;7.00;76.00
85956;DHT22;76522;51.420;5.386;2024-02-28T10:15:41;7.00;75.60
85956;DHT22;76522;51.420;5.386;2024-02-28T10:18:07;7.00;75.90
85956;DHT22;76522;51.420;5.386;2024-02-28T10:20:33;7.00;75.60
85956;DHT22;76522;51.420;5.386;2024-02-28T10:22:59;7.00;76.00
85956;DHT22;76522;51.420;5.386;2024-02-28T10:25:25;7.00;76.30
85956;DHT22;76522;51.420;5.386;2024-02-28T10:27:51;7.00;76.30
85956;DHT22;76522;51.420;5.386;2024-02-28T10:30:19;7.10;75.90
85956;DHT22;76522;51.420;5.386;2024-02-28T10:32:50;7.00;76.20
85956;DHT22;76522;51.420;5.386;2024-02-28T10:35:17;7.00;76.50
85956;DHT22;76522;51.420;5.386;2024-02-28T10:37:51;7.00;76.40
85956;DHT22;76522;51.420;5.386;2024-02-28T10:40:17;7.10;76.40
85956;DHT22;76522;51.420;5.386;2024-02-28T10:42:43;7.00;76.30
85956;DHT22;76522;51.420;5.386;2024-02-28T10:45:12;7.10;76.20
85956;DHT22;76522;51.420;5.386;2024-02-28T10:47:41;7.20;76.10
85956;DHT22;76522;51.420;5.386;2024-02-28T10:50:07;7.20;75.90
85956;DHT22;76522;51.420;5.386;2024-02-28T10:52:34;7.30;75.90
85956;DHT22;76522;51.420;5.386;2024-02-28T10:54:59;7.40;75.40
85956;DHT22;76522;51.420;5.386;2024-02-28T10:57:27;7.50;75.40
85956;DHT22;76522;51.420;5.386;2024-02-28T10:59:55;7.50;75.50
85956;DHT22;76522;51.420;5.386;2024-02-28T11:02:22;7.60;75.40
85956;DHT22;76522;51.420;5.386;2024-02-28T11:04:51;7.70;75.30
85956;DHT22;76522;51.420;5.386;2024-02-28T11:07:21;7.80;74.50
85956;DHT22;76522;51.420;5.386;2024-02-28T11:09:47;7.80;74.40
85956;DHT22;76522;51.420;5.386;2024-02-28T11:12:27;7.70;74.90
85956;DHT22;76522;51.420;5.386;2024-02-28T11:15:03;7.80;75.00
85956;DHT22;76522;51.420;5.386;2024-02-28T11:17:32;7.90;74.60
85956;DHT22;76522;51.420;5.386;2024-02-28T11:19:59;8.10;74.30
85956;DHT22;76522;51.420;5.386;2024-02-28T11:22:28;8.10;74.20
85956;DHT22;76522;51.420;5.386;2024-02-28T11:24:54;8.10;74.20
85956;DHT22;76522;51.420;5.386;2024-02-28T11:27:21;8.00;74.00
85956;DHT22;76522;51.420;5.386;2024-02-28T11:29:47;8.00;74.30
85956;DHT22;76522;51.420;5.386;2024-02-28T11:32:13;8.10;74.40
85956;DHT22;76522;51.420;5.386;2024-02-28T11:34:40;8.00;74.50
85956;DHT22;76522;51.420;5.386;2024-02-28T11:37:09;8.10;74.30
85956;DHT22;76522;51.420;5.386;2024-02-28T11:39:35;8.20;74.40
85956;DHT22;76522;51.420;5.386;2024-02-28T11:42:15;8.20;74.20
85956;DHT22;76522;51.420;5.386;2024-02-28T11:44:42;8.20;74.20
85956;DHT22;76522;51.420;5.386;2024-02-28T11:47:11;8.20;74.20
85956;DHT22;76522;51.420;5.386;2024-02-28T11:49:40;8.20;74.30
85956;DHT22;76522;51.420;5.386;2024-02-28T11:52:05;8.20;74.10
85956;DHT22;76522;51.420;5.386;2024-02-28T11:54:31;8.20;74.00
85956;DHT22;76522;51.420;5.386;2024-02-28T11:56:57;8.20;74.10
85956;DHT22;76522;51.420;5.386;2024-02-28T11:59:23;8.20;74.10
85956;DHT22;76522;51.420;5.386;2024-02-28T12:01:49;8.10;74.40
85956;DHT22;76522;51.420;5.386;2024-02-28T12:04:16;8.10;74.40
85956;DHT22;76522;51.420;5.386;2024-02-28T12:06:42;8.20;74.30
85956;DHT22;76522;51.420;5.386;2024-02-28T12:09:12;8.20;74.40
85956;DHT22;76522;51.420;5.386;2024-02-28T12:11:40;8.30;74.10
85956;DHT22;76522;51.420;5.386;2024-02-28T12:14:07;8.20;73.90
85956;DHT22;76522;51.420;5.386;2024-02-28T12:16:36;8.10;74.10
85956;DHT22;76522;51.420;5.386;2024-02-28T12:19:07;8.10;74.40
85956;DHT22;76522;51.420;5.386;2024-02-28T12:21:33;8.10;74.50
85956;DHT22;76522;51.420;5.386;2024-02-28T12:23:59;8.10;74.50
85956;DHT22;76522;51.420;5.386;2024-02-28T12:26:24;8.10;74.50
85956;DHT22;76522;51.420;5.386;2024-02-28T12:28:50;8.10;74.70
85956;DHT22;76522;51.420;5.386;2024-02-28T12:31:16;8.20;74.40
85956;DHT22;76522;51.420;5.386;2024-02-28T12:33:42;8.20;74.20
85956;DHT22;76522;51.420;5.386;2024-02-28T12:36:08;8.30;74.50
85956;DHT22;76522;51.420;5.386;2024-02-28T12:38:34;8.40;73.70
85956;DHT22;76522;51.420;5.386;2024-02-28T12:41:00;8.40;73.70
85956;DHT22;76522;51.420;5.386;2024-02-28T12:43:25;8.50;73.50
85956;DHT22;76522;51.420;5.386;2024-02-28T12:45:51;8.40;73.50
85956;DHT22;76522;51.420;5.386;2024-02-28T12:48:17;8.40;73.80
85956;DHT22;76522;51.420;5.386;2024-02-28T12:50:42;8.30;73.60
85956;DHT22;76522;51.420;5.386;2024-02-28T12:53:08;8.30;73.80
85956;DHT22;76522;51.420;5.386;2024-02-28T12:55:34;8.30;73.70
85956;DHT22;76522;51.420;5.386;2024-02-28T12:58:00;8.40;73.70
85956;DHT22;76522;51.420;5.386;2024-02-28T13:00:30;8.40;74.00
85956;DHT22;76522;51.420;5.386;2024-02-28T13:02:55;8.40;74.00
85956;DHT22;76522;51.420;5.386;2024-02-28T13:05:21;8.40;73.80
85956;DHT22;76522;51.420;5.386;2024-02-28T13:07:47;8.40;73.80
85956;DHT22;76522;51.420;5.386;2024-02-28T13:10:12;8.60;73.60
85956;DHT22;76522;51.420;5.386;2024-02-28T13:12:38;8.70;73.00
85956;DHT22;76522;51.420;5.386;2024-02-28T13:15:08;8.80;73.10
85956;DHT22;76522;51.420;5.386;2024-02-28T13:17:33;8.80;73.00
85956;DHT22;76522;51.420;5.386;2024-02-28T13:20:01;8.80;73.00
85956;DHT22;76522;51.420;5.386;2024-02-28T13:22:28;8.80;73.20
85956;DHT22;76522;51.420;5.386;2024-02-28T13:24:54;8.70;73.00
85956;DHT22;76522;51.420;5.386;2024-02-28T13:27:20;8.60;73.10
85956;DHT22;76522;51.420;5.386;2024-02-28T13:29:46;8.50;73.30
85956;DHT22;76522;51.420;5.386;2024-02-28T13:32:12;8.60;73.30
85956;DHT22;76522;51.420;5.386;2024-02-28T13:34:39;8.80;73.20
85956;DHT22;76522;51.420;5.386;2024-02-28T13:37:05;8.60;73.20
85956;DHT22;76522;51.420;5.386;2024-02-28T13:39:31;8.60;73.70
85956;DHT22;76522;51.420;5.386;2024-02-28T13:41:57;8.60;73.80
85956;DHT22;76522;51.420;5.386;2024-02-28T13:44:22;8.60;73.90
85956;DHT22;76522;51.420;5.386;2024-02-28T13:46:50;8.60;74.00
85956;DHT22;76522;51.420;5.386;2024-02-28T13:49:17;8.60;73.80
85956;DHT22;76522;51.420;5.386;2024-02-28T13:51:45;8.60;74.00
85956;DHT22;76522;51.420;5.386;2024-02-28T13:54:11;8.60;74.00
85956;DHT22;76522;51.420;5.386;2024-02-28T13:56:36;8.60;73.90
85956;DHT22;76522;51.420;5.386;2024-02-28T13:59:03;8.60;74.00
85956;DHT22;76522;51.420;5.386;2024-02-28T14:01:28;8.70;73.80
85956;DHT22;76522;51.420;5.386;2024-02-28T14:03:54;8.80;73.50
85956;DHT22;76522;51.420;5.386;2024-02-28T14:06:20;8.70;73.50
85956;DHT22;76522;51.420;5.386;2024-02-28T14:08:46;8.60;73.90
85956;DHT22;76522;51.420;5.386;2024-02-28T14:11:11;8.60;73.70
85956;DHT22;76522;51.420;5.386;2024-02-28T14:13:37;8.60;74.00
85956;DHT22;76522;51.420;5.386;2024-02-28T14:16:05;8.60;73.80
85956;DHT22;76522;51.420;5.386;2024-02-28T14:18:31;8.60;74.00
85956;DHT22;76522;51.420;5.386;2024-02-28T14:20:57;8.60;74.10
85956;DHT22;76522;51.420;5.386;2024-02-28T14:23:22;8.60;74.20
85956;DHT22;76522;51.420;5.386;2024-02-28T14:25:48;8.60;74.40
85956;DHT22;76522;51.420;5.386;2024-02-28T14:28:14;8.60;74.30
85956;DHT22;76522;51.420;5.386;2024-02-28T14:30:39;8.60;74.40
85956;DHT22;76522;51.420;5.386;2024-02-28T14:33:05;8.60;74.30
85956;DHT22;76522;51.420;5.386;2024-02-28T14:35:35;8.60;74.30
85956;DHT22;76522;51.420;5.386;2024-02-28T14:38:04;8.60;74.50
85956;DHT22;76522;51.420;5.386;2024-02-28T14:40:30;8.70;74.50
85956;DHT22;76522;51.420;5.386;2024-02-28T14:42:56;8.80;74.20
85956;DHT22;76522;51.420;5.386;2024-02-28T14:45:22;8.80;74.50
85956;DHT22;76522;51.420;5.386;2024-02-28T14:47:49;8.90;73.80
85956;DHT22;76522;51.420;5.386;2024-02-28T14:50:15;9.00;73.90
85956;DHT22;76522;51.420;5.386;2024-02-28T14:52:41;9.00;73.80
85956;DHT22;76522;51.420;5.386;2024-02-28T14:55:08;9.00;73.80
85956;DHT22;76522;51.420;5.386;2024-02-28T14:57:38;9.20;73.60
85956;DHT22;76522;51.420;5.386;2024-02-28T15:00:06;9.10;73.40
85956;DHT22;76522;51.420;5.386;2024-02-28T15:02:43;9.00;73.70
85956;DHT22;76522;51.420;5.386;2024-02-28T15:05:11;9.10;73.60
85956;DHT22;76522;51.420;5.386;2024-02-28T15:07:37;9.10;73.30
85956;DHT22;76522;51.420;5.386;2024-02-28T15:10:03;9.20;73.50
85956;DHT22;76522;51.420;5.386;2024-02-28T15:12:33;9.20;73.50
85956;DHT22;76522;51.420;5.386;2024-02-28T15:15:03;9.20;73.20
85956;DHT22;76522;51.420;5.386;2024-02-28T15:17:30;9.30;73.00
85956;DHT22;76522;51.420;5.386;2024-02-28T15:19:55;9.40;72.90
85956;DHT22;76522;51.420;5.386;2024-02-28T15:22:21;9.40;72.70
85956;DHT22;76522;51.420;5.386;2024-02-28T15:24:47;9.20;72.90
85956;DHT22;76522;51.420;5.386;2024-02-28T15:27:13;9.20;73.10
85956;DHT22;76522;51.420;5.386;2024-02-28T15:29:39;9.10;73.10
85956;DHT22;76522;51.420;5.386;2024-02-28T15:32:06;9.10;73.20
85956;DHT22;76522;51.420;5.386;2024-02-28T15:34:32;9.20;73.30
85956;DHT22;76522;51.420;5.386;2024-02-28T15:36:57;9.20;73.10
85956;DHT22;76522;51.420;5.386;2024-02-28T15:39:23;9.20;73.20